sensor_id;sensor_type;location;lat;lon;timestamp;temperature;humidity
10417;DHT22;62605;49.432;8.680;2023-10-13T00:16:10;18.30;1.00
10417;DHT22;62605;49.432;8.680;2023-10-13T00:18:43;18.40;1.00
10417;DHT22;62605;49.432;8.680;2023-10-13T00:21:11;18.50;1.00
10417;DHT22;62605;49.432;8.680;2023-10-13T00:23:42;18.50;1.00
10417;DHT22;62605;49.432;8.680;2023-10-13T00:26:18;18.60;1.00
10417;DHT22;62605;49.432;8.680;2023-10-13T00:28:49;18.60;1.00
10417;DHT22;62605;49.432;8.680;2023-10-13T00:31:27;18.60;1.00
10417;DHT22;62605;49.432;8.680;2023-10-13T00:34:00;18.70;1.00
10417;DHT22;62605;49.432;8.680;2023-10-13T00:36:35;18.80;1.00
10417;DHT22;62605;49.432;8.680;2023-10-13T00:39:03;18.80;1.00
10417;DHT22;62605;49.432;8.680;2023-10-13T00:41:32;18.80;1.00
10417;DHT22;62605;49.432;8.680;2023-10-13T00:44:16;18.80;1.00
10417;DHT22;62605;49.432;8.680;2023-10-13T00:46:54;18.80;1.00
10417;DHT22;62605;49.432;8.680;2023-10-13T00:49:23;18.80;1.00
10417;DHT22;62605;49.432;8.680;2023-10-13T00:51:53;18.80;1.00
10417;DHT22;62605;49.432;8.680;2023-10-13T00:54:22;18.80;1.00
10417;DHT22;62605;49.432;8.680;2023-10-13T00:56:53;18.80;1.00
10417;DHT22;62605;49.432;8.680;2023-10-13T00:59:30;18.80;1.00
10417;DHT22;62605;49.432;8.680;2023-10-13T01:02:00;18.80;1.00
10417;DHT22;62605;49.432;8.680;2023-10-13T01:04:47;18.80;1.00
10417;DHT22;62605;49.432;8.680;2023-10-13T01:07:16;18.80;1.00
10417;DHT22;62605;49.432;8.680;2023-10-13T01:09:42;18.80;1.00
10417;DHT22;62605;49.432;8.680;2023-10-13T01:12:12;18.80;1.00
10417;DHT22;62605;49.432;8.680;2023-10-13T01:14:40;18.70;1.00
10417;DHT22;62605;49.432;8.680;2023-10-13T01:17:09;18.60;1.00
10417;DHT22;62605;49.432;8.680;2023-10-13T01:19:36;18.60;1.00
10417;DHT22;62605;49.432;8.680;2023-10-13T01:22:09;18.70;1.00
10417;DHT22;62605;49.432;8.680;2023-10-13T01:24:37;18.70;1.00
10417;DHT22;62605;49.432;8.680;2023-10-13T01:27:06;18.70;1.00
10417;DHT22;62605;49.432;8.680;2023-10-13T01:29:42;18.70;1.00
10417;DHT22;62605;49.432;8.680;2023-10-13T01:32:13;18.60;1.00
10417;DHT22;62605;49.432;8.680;2023-10-13T01:34:40;18.70;1.00
10417;DHT22;62605;49.432;8.680;2023-10-13T01:37:11;18.70;1.00
10417;DHT22;62605;49.432;8.680;2023-10-13T01:39:39;18.70;1.00
10417;DHT22;62605;49.432;8.680;2023-10-13T01:42:06;18.80;1.00
10417;DHT22;62605;49.432;8.680;2023-10-13T01:44:33;18.80;1.00
10417;DHT22;62605;49.432;8.680;2023-10-13T01:47:00;18.70;1.00
10417;DHT22;62605;49.432;8.680;2023-10-13T01:49:32;18.70;1.00
10417;DHT22;62605;49.432;8.680;2023-10-13T01:52:07;18.70;1.00
10417;DHT22;62605;49.432;8.680;2023-10-13T01:54:34;18.70;1.00
10417;DHT22;62605;49.432;8.680;2023-10-13T01:57:03;18.70;1.00
10417;DHT22;62605;49.432;8.680;2023-10-13T01:59:30;18.80;1.00
10417;DHT22;62605;49.432;8.680;2023-10-13T02:01:57;18.80;1.00
10417;DHT22;62605;49.432;8.680;2023-10-13T02:04:26;18.80;1.00
10417;DHT22;62605;49.432;8.680;2023-10-13T02:06:54;18.80;1.00
10417;DHT22;62605;49.432;8.680;2023-10-13T02:09:22;18.80;1.00
10417;DHT22;62605;49.432;8.680;2023-10-13T02:11:52;18.80;1.00
10417;DHT22;62605;49.432;8.680;2023-10-13T02:14:21;18.90;1.00
10417;DHT22;62605;49.432;8.680;2023-10-13T02:16:51;18.90;1.00
10417;DHT22;62605;49.432;8.680;2023-10-13T02:19:21;19.00;1.00
10417;DHT22;62605;49.432;8.680;2023-10-13T02:21:53;18.80;1.00
10417;DHT22;62605;49.432;8.680;2023-10-13T02:24:25;18.70;1.00
10417;DHT22;62605;49.432;8.680;2023-10-13T02:26:57;18.70;1.00
10417;DHT22;62605;49.432;8.680;2023-10-13T02:29:33;18.70;1.00
10417;DHT22;62605;49.432;8.680;2023-10-13T02:32:09;18.50;1.00
10417;DHT22;62605;49.432;8.680;2023-10-13T02:34:44;18.60;1.00
10417;DHT22;62605;49.432;8.680;2023-10-13T02:37:11;18.70;1.00
10417;DHT22;62605;49.432;8.680;2023-10-13T02:39:38;18.70;1.00
10417;DHT22;62605;49.432;8.680;2023-10-13T02:42:07;18.70;1.00
10417;DHT22;62605;49.432;8.680;2023-10-13T02:44:34;18.70;1.00
10417;DHT22;62605;49.432;8.680;2023-10-13T02:47:04;18.70;1.00
10417;DHT22;62605;49.432;8.680;2023-10-13T02:49:34;18.70;1.00
10417;DHT22;62605;49.432;8.680;2023-10-13T02:52:03;18.60;1.00
10417;DHT22;62605;49.432;8.680;2023-10-13T02:54:33;18.60;1.00
10417;DHT22;62605;49.432;8.680;2023-10-13T02:57:05;18.50;1.00
10417;DHT22;62605;49.432;8.680;2023-10-13T02:59:33;18.50;1.00
10417;DHT22;62605;49.432;8.680;2023-10-13T03:02:07;18.50;1.00
10417;DHT22;62605;49.432;8.680;2023-10-13T03:04:44;18.50;1.00
10417;DHT22;62605;49.432;8.680;2023-10-13T03:07:11;18.50;1.00
10417;DHT22;62605;49.432;8.680;2023-10-13T03:09:41;18.40;1.00
10417;DHT22;62605;49.432;8.680;2023-10-13T03:12:16;18.50;1.00
10417;DHT22;62605;49.432;8.680;2023-10-13T03:14:44;18.40;1.00
10417;DHT22;62605;49.432;8.680;2023-10-13T03:17:13;18.50;1.00
10417;DHT22;62605;49.432;8.680;2023-10-13T03:19:42;18.60;1.00
10417;DHT22;62605;49.432;8.680;2023-10-13T03:22:16;18.50;1.00
10417;DHT22;62605;49.432;8.680;2023-10-13T03:24:43;18.50;1.00
10417;DHT22;62605;49.432;8.680;2023-10-13T03:27:12;18.40;1.00
10417;DHT22;62605;49.432;8.680;2023-10-13T03:29:44;18.40;1.00
10417;DHT22;62605;49.432;8.680;2023-10-13T03:32:15;18.40;1.00
10417;DHT22;62605;49.432;8.680;2023-10-13T03:34:42;18.40;1.00
10417;DHT22;62605;49.432;8.680;2023-10-13T03:37:37;18.50;1.00
10417;DHT22;62605;49.432;8.680;2023-10-13T03:40:05;18.40;1.00
10417;DHT22;62605;49.432;8.680;2023-10-13T03:42:55;18.40;1.00
10417;DHT22;62605;49.432;8.680;2023-10-13T03:45:27;18.40;1.00
10417;DHT22;62605;49.432;8.680;2023-10-13T03:47:57;18.40;1.00
10417;DHT22;62605;49.432;8.680;2023-10-13T03:50:25;18.40;1.00
10417;DHT22;62605;49.432;8.680;2023-10-13T03:52:57;18.40;1.00
10417;DHT22;62605;49.432;8.680;2023-10-13T03:55:25;18.30;1.00
10417;DHT22;62605;49.432;8.680;2023-10-13T03:57:54;18.30;1.00
10417;DHT22;62605;49.432;8.680;2023-10-13T04:00:26;18.30;1.00
10417;DHT22;62605;49.432;8.680;2023-10-13T04:02:54;18.20;1.00
10417;DHT22;62605;49.432;8.680;2023-10-13T04:05:36;18.40;1.00
10417;DHT22;62605;49.432;8.680;2023-10-13T04:08:06;18.60;1.00
10417;DHT22;62605;49.432;8.680;2023-10-13T04:10:52;18.50;1.00
10417;DHT22;62605;49.432;8.680;2023-10-13T04:13:36;18.50;1.00
10417;DHT22;62605;49.432;8.680;2023-10-13T04:16:22;18.50;1.00
10417;DHT22;62605;49.432;8.680;2023-10-13T04:19:03;18.40;1.00
10417;DHT22;62605;49.432;8.680;2023-10-13T04:21:46;18.30;1.00
10417;DHT22;62605;49.432;8.680;2023-10-13T04:24:24;18.20;1.00
10417;DHT22;62605;49.432;8.680;2023-10-13T04:27:26;18.10;1.00
10417;DHT22;62605;49.432;8.680;2023-10-13T04:30:19;18.10;1.00
10417;DHT22;62605;49.432;8.680;2023-10-13T04:32:54;18.00;1.00
10417;DHT22;62605;49.432;8.680;2023-10-13T04:35:44;18.00;1.00
10417;DHT22;62605;49.432;8.680;2023-10-13T04:38:23;18.00;1.00
10417;DHT22;62605;49.432;8.680;2023-10-13T04:40:58;17.90;1.00
10417;DHT22;62605;49.432;8.680;2023-10-13T04:43:27;17.90;1.00
10417;DHT22;62605;49.432;8.680;2023-10-13T04:46:19;17.80;1.00
10417;DHT22;62605;49.432;8.680;2023-10-13T04:49:02;17.90;1.00
10417;DHT22;62605;49.432;8.680;2023-10-13T04:51:36;17.90;1.00
10417;DHT22;62605;49.432;8.680;2023-10-13T04:54:24;17.90;1.00
10417;DHT22;62605;49.432;8.680;2023-10-13T04:56:59;17.90;1.00
10417;DHT22;62605;49.432;8.680;2023-10-13T04:59:43;17.90;1.00
10417;DHT22;62605;49.432;8.680;2023-10-13T05:02:24;17.90;1.00
10417;DHT22;62605;49.432;8.680;2023-10-13T05:05:25;17.90;1.00
10417;DHT22;62605;49.432;8.680;2023-10-13T05:08:24;17.90;1.00
10417;DHT22;62605;49.432;8.680;2023-10-13T05:11:09;17.90;1.00
10417;DHT22;62605;49.432;8.680;2023-10-13T05:13:56;17.90;1.00
10417;DHT22;62605;49.432;8.680;2023-10-13T05:16:40;17.90;1.00
10417;DHT22;62605;49.432;8.680;2023-10-13T05:19:24;17.90;1.00
10417;DHT22;62605;49.432;8.680;2023-10-13T05:22:25;17.80;1.00
10417;DHT22;62605;49.432;8.680;2023-10-13T05:25:10;17.90;1.00
10417;DHT22;62605;49.432;8.680;2023-10-13T05:27:54;17.90;1.00
10417;DHT22;62605;49.432;8.680;2023-10-13T05:30:39;17.90;1.00
10417;DHT22;62605;49.432;8.680;2023-10-13T05:33:23;18.10;1.00
10417;DHT22;62605;49.432;8.680;2023-10-13T05:36:10;18.10;1.00
10417;DHT22;62605;49.432;8.680;2023-10-13T05:38:56;18.00;1.00
10417;DHT22;62605;49.432;8.680;2023-10-13T05:41:41;17.90;1.00
10417;DHT22;62605;49.432;8.680;2023-10-13T05:44:25;18.00;1.00
10417;DHT22;62605;49.432;8.680;2023-10-13T05:47:21;18.00;1.00
10417;DHT22;62605;49.432;8.680;2023-10-13T05:50:06;18.10;1.00
10417;DHT22;62605;49.432;8.680;2023-10-13T05:52:54;18.10;1.00
10417;DHT22;62605;49.432;8.680;2023-10-13T05:55:40;18.30;1.00
10417;DHT22;62605;49.432;8.680;2023-10-13T05:58:24;18.20;1.00
10417;DHT22;62605;49.432;8.680;2023-10-13T06:01:12;18.20;1.00
10417;DHT22;62605;49.432;8.680;2023-10-13T06:03:57;18.50;1.00
10417;DHT22;62605;49.432;8.680;2023-10-13T06:06:42;18.50;1.00
10417;DHT22;62605;49.432;8.680;2023-10-13T06:09:41;18.40;1.00
10417;DHT22;62605;49.432;8.680;2023-10-13T06:12:27;18.30;1.00
10417;DHT22;62605;49.432;8.680;2023-10-13T06:15:12;18.20;1.00
10417;DHT22;62605;49.432;8.680;2023-10-13T06:17:57;18.40;1.00
10417;DHT22;62605;49.432;8.680;2023-10-13T06:20:43;18.40;1.00
10417;DHT22;62605;49.432;8.680;2023-10-13T06:23:28;18.50;1.00
10417;DHT22;62605;49.432;8.680;2023-10-13T06:26:15;18.60;1.00
10417;DHT22;62605;49.432;8.680;2023-10-13T06:29:01;18.60;1.00
10417;DHT22;62605;49.432;8.680;2023-10-13T06:31:33;18.60;1.00
10417;DHT22;62605;49.432;8.680;2023-10-13T06:34:02;18.60;1.00
10417;DHT22;62605;49.432;8.680;2023-10-13T06:36:30;18.60;1.00
10417;DHT22;62605;49.432;8.680;2023-10-13T06:38:58;18.60;1.00
10417;DHT22;62605;49.432;8.680;2023-10-13T06:41:39;18.60;1.00
10417;DHT22;62605;49.432;8.680;2023-10-13T06:44:08;18.60;1.00
10417;DHT22;62605;49.432;8.680;2023-10-13T06:46:41;18.60;1.00
10417;DHT22;62605;49.432;8.680;2023-10-13T06:49:09;18.60;1.00
10417;DHT22;62605;49.432;8.680;2023-10-13T06:51:39;18.60;1.00
10417;DHT22;62605;49.432;8.680;2023-10-13T06:54:07;18.70;1.00
10417;DHT22;62605;49.432;8.680;2023-10-13T06:56:45;18.70;1.00
10417;DHT22;62605;49.432;8.680;2023-10-13T06:59:18;18.70;1.00
10417;DHT22;62605;49.432;8.680;2023-10-13T07:01:52;18.80;1.00
10417;DHT22;62605;49.432;8.680;2023-10-13T07:04:19;18.80;1.00
10417;DHT22;62605;49.432;8.680;2023-10-13T07:06:47;18.80;1.00
10417;DHT22;62605;49.432;8.680;2023-10-13T07:09:15;18.90;1.00
10417;DHT22;62605;49.432;8.680;2023-10-13T07:12:06;19.00;1.00
10417;DHT22;62605;49.432;8.680;2023-10-13T07:14:47;19.10;1.00
10417;DHT22;62605;49.432;8.680;2023-10-13T07:17:29;19.20;1.00
10417;DHT22;62605;49.432;8.680;2023-10-13T07:20:04;19.20;1.00
10417;DHT22;62605;49.432;8.680;2023-10-13T07:22:41;19.30;1.00
10417;DHT22;62605;49.432;8.680;2023-10-13T07:25:20;19.30;1.00
10417;DHT22;62605;49.432;8.680;2023-10-13T07:27:50;19.30;1.00
10417;DHT22;62605;49.432;8.680;2023-10-13T07:30:19;19.50;1.00
10417;DHT22;62605;49.432;8.680;2023-10-13T07:32:52;19.50;1.00
10417;DHT22;62605;49.432;8.680;2023-10-13T07:35:21;19.60;1.00
10417;DHT22;62605;49.432;8.680;2023-10-13T07:37:50;19.60;1.00
10417;DHT22;62605;49.432;8.680;2023-10-13T07:40:21;19.60;1.00
10417;DHT22;62605;49.432;8.680;2023-10-13T07:43:05;19.60;1.00
10417;DHT22;62605;49.432;8.680;2023-10-13T07:45:38;19.80;1.00
10417;DHT22;62605;49.432;8.680;2023-10-13T07:48:07;19.90;1.00
10417;DHT22;62605;49.432;8.680;2023-10-13T07:50:44;19.80;1.00
10417;DHT22;62605;49.432;8.680;2023-10-13T07:53:12;19.90;1.00
10417;DHT22;62605;49.432;8.680;2023-10-13T07:55:49;20.00;1.00
10417;DHT22;62605;49.432;8.680;2023-10-13T07:58:21;20.00;1.00
10417;DHT22;62605;49.432;8.680;2023-10-13T08:00:52;20.00;1.00
10417;DHT22;62605;49.432;8.680;2023-10-13T08:03:32;20.20;1.00
10417;DHT22;62605;49.432;8.680;2023-10-13T08:06:09;20.30;1.00
10417;DHT22;62605;49.432;8.680;2023-10-13T08:08:46;20.30;1.00
10417;DHT22;62605;49.432;8.680;2023-10-13T08:11:19;20.50;1.00
10417;DHT22;62605;49.432;8.680;2023-10-13T08:13:58;20.50;1.00
10417;DHT22;62605;49.432;8.680;2023-10-13T08:16:29;20.60;1.00
10417;DHT22;62605;49.432;8.680;2023-10-13T08:19:14;20.70;1.00
10417;DHT22;62605;49.432;8.680;2023-10-13T08:21:47;20.70;1.00
10417;DHT22;62605;49.432;8.680;2023-10-13T08:24:19;20.70;1.00
10417;DHT22;62605;49.432;8.680;2023-10-13T08:26:55;20.70;1.00
10417;DHT22;62605;49.432;8.680;2023-10-13T08:29:39;20.70;1.00
10417;DHT22;62605;49.432;8.680;2023-10-13T08:32:27;20.70;1.00
10417;DHT22;62605;49.432;8.680;2023-10-13T08:35:10;20.70;1.00
10417;DHT22;62605;49.432;8.680;2023-10-13T08:37:48;20.80;1.00
10417;DHT22;62605;49.432;8.680;2023-10-13T08:46:52;21.00;1.00
10417;DHT22;62605;49.432;8.680;2023-10-13T08:49:33;21.00;1.00
10417;DHT22;62605;49.432;8.680;2023-10-13T08:52:09;21.10;1.00
10417;DHT22;62605;49.432;8.680;2023-10-13T08:54:52;21.20;1.00
10417;DHT22;62605;49.432;8.680;2023-10-13T08:57:39;21.20;1.00
10417;DHT22;62605;49.432;8.680;2023-10-13T09:00:09;21.10;1.00
10417;DHT22;62605;49.432;8.680;2023-10-13T09:03:15;21.20;1.00
10417;DHT22;62605;49.432;8.680;2023-10-13T09:05:56;21.30;1.00
10417;DHT22;62605;49.432;8.680;2023-10-13T09:08:33;21.30;1.00
10417;DHT22;62605;49.432;8.680;2023-10-13T09:11:11;21.30;1.00
10417;DHT22;62605;49.432;8.680;2023-10-13T09:13:40;21.40;1.00
10417;DHT22;62605;49.432;8.680;2023-10-13T09:16:11;21.50;1.00
10417;DHT22;62605;49.432;8.680;2023-10-13T09:18:48;21.50;99.90
10417;DHT22;62605;49.432;8.680;2023-10-13T09:21:16;21.50;99.90
10417;DHT22;62605;49.432;8.680;2023-10-13T09:24:13;21.60;99.90
10417;DHT22;62605;49.432;8.680;2023-10-13T09:26:42;21.60;99.90
10417;DHT22;62605;49.432;8.680;2023-10-13T09:29:19;21.60;99.90
10417;DHT22;62605;49.432;8.680;2023-10-13T09:31:47;21.70;99.90
10417;DHT22;62605;49.432;8.680;2023-10-13T09:34:21;21.70;99.90
10417;DHT22;62605;49.432;8.680;2023-10-13T09:36:51;21.80;99.90
10417;DHT22;62605;49.432;8.680;2023-10-13T09:39:24;21.80;99.90
10417;DHT22;62605;49.432;8.680;2023-10-13T09:42:01;21.90;99.90
10417;DHT22;62605;49.432;8.680;2023-10-13T09:44:29;22.10;99.90
10417;DHT22;62605;49.432;8.680;2023-10-13T09:47:01;22.10;99.90
10417;DHT22;62605;49.432;8.680;2023-10-13T09:49:39;22.10;99.90
10417;DHT22;62605;49.432;8.680;2023-10-13T09:52:16;22.20;99.90
10417;DHT22;62605;49.432;8.680;2023-10-13T09:55:00;22.30;99.90
10417;DHT22;62605;49.432;8.680;2023-10-13T09:57:33;22.40;99.90
10417;DHT22;62605;49.432;8.680;2023-10-13T10:00:09;22.40;99.90
10417;DHT22;62605;49.432;8.680;2023-10-13T10:02:53;22.50;99.90
10417;DHT22;62605;49.432;8.680;2023-10-13T10:05:24;22.60;99.90
10417;DHT22;62605;49.432;8.680;2023-10-13T10:07:57;22.70;99.90
10417;DHT22;62605;49.432;8.680;2023-10-13T10:10:32;22.70;99.90
10417;DHT22;62605;49.432;8.680;2023-10-13T10:13:13;22.70;99.90
10417;DHT22;62605;49.432;8.680;2023-10-13T10:15:47;22.80;99.90
10417;DHT22;62605;49.432;8.680;2023-10-13T10:18:19;22.80;99.90
10417;DHT22;62605;49.432;8.680;2023-10-13T10:20:48;23.00;99.90
10417;DHT22;62605;49.432;8.680;2023-10-13T10:23:28;23.00;99.90
10417;DHT22;62605;49.432;8.680;2023-10-13T10:26:09;23.10;99.90
10417;DHT22;62605;49.432;8.680;2023-10-13T10:28:41;23.20;99.90
10417;DHT22;62605;49.432;8.680;2023-10-13T10:31:08;23.40;99.90
10417;DHT22;62605;49.432;8.680;2023-10-13T10:33:38;23.60;99.90
10417;DHT22;62605;49.432;8.680;2023-10-13T10:36:06;23.70;99.90
10417;DHT22;62605;49.432;8.680;2023-10-13T10:38:51;24.00;99.90
10417;DHT22;62605;49.432;8.680;2023-10-13T10:41:25;24.10;99.90
10417;DHT22;62605;49.432;8.680;2023-10-13T10:43:55;24.10;99.90
10417;DHT22;62605;49.432;8.680;2023-10-13T10:46:29;24.10;99.90
10417;DHT22;62605;49.432;8.680;2023-10-13T10:49:05;24.10;99.90
10417;DHT22;62605;49.432;8.680;2023-10-13T10:51:39;24.20;99.90
10417;DHT22;62605;49.432;8.680;2023-10-13T10:54:18;24.10;99.90
10417;DHT22;62605;49.432;8.680;2023-10-13T10:56:46;24.10;99.90
10417;DHT22;62605;49.432;8.680;2023-10-13T10:59:19;24.30;99.90
10417;DHT22;62605;49.432;8.680;2023-10-13T11:01:50;24.50;99.90
10417;DHT22;62605;49.432;8.680;2023-10-13T11:04:18;24.60;99.90
10417;DHT22;62605;49.432;8.680;2023-10-13T11:06:51;24.80;99.90
10417;DHT22;62605;49.432;8.680;2023-10-13T11:09:25;24.90;99.90
10417;DHT22;62605;49.432;8.680;2023-10-13T11:12:13;25.00;99.90
10417;DHT22;62605;49.432;8.680;2023-10-13T11:15:00;24.90;99.90
10417;DHT22;62605;49.432;8.680;2023-10-13T11:17:27;25.10;99.90
10417;DHT22;62605;49.432;8.680;2023-10-13T11:20:12;25.40;99.90
10417;DHT22;62605;49.432;8.680;2023-10-13T11:22:45;25.30;99.90
10417;DHT22;62605;49.432;8.680;2023-10-13T11:25:22;25.30;99.90
10417;DHT22;62605;49.432;8.680;2023-10-13T11:27:55;25.30;99.90
10417;DHT22;62605;49.432;8.680;2023-10-13T11:30:26;25.40;99.90
10417;DHT22;62605;49.432;8.680;2023-10-13T11:33:07;25.30;99.90
10417;DHT22;62605;49.432;8.680;2023-10-13T11:35:35;25.30;99.90
10417;DHT22;62605;49.432;8.680;2023-10-13T11:38:21;25.50;99.90
10417;DHT22;62605;49.432;8.680;2023-10-13T11:40:55;25.60;99.90
10417;DHT22;62605;49.432;8.680;2023-10-13T11:43:49;25.70;99.90
10417;DHT22;62605;49.432;8.680;2023-10-13T11:46:32;25.80;99.90
10417;DHT22;62605;49.432;8.680;2023-10-13T11:49:17;25.90;99.90
10417;DHT22;62605;49.432;8.680;2023-10-13T11:51:47;25.90;99.90
10417;DHT22;62605;49.432;8.680;2023-10-13T11:54:14;26.00;99.90
10417;DHT22;62605;49.432;8.680;2023-10-13T11:56:43;26.00;99.90
10417;DHT22;62605;49.432;8.680;2023-10-13T11:59:10;25.80;99.90
10417;DHT22;62605;49.432;8.680;2023-10-13T12:01:44;25.80;99.90
10417;DHT22;62605;49.432;8.680;2023-10-13T12:04:28;25.90;99.90
10417;DHT22;62605;49.432;8.680;2023-10-13T12:07:06;26.10;99.90
10417;DHT22;62605;49.432;8.680;2023-10-13T12:09:43;26.20;99.90
10417;DHT22;62605;49.432;8.680;2023-10-13T12:12:30;26.00;99.90
10417;DHT22;62605;49.432;8.680;2023-10-13T12:15:06;25.90;99.90
10417;DHT22;62605;49.432;8.680;2023-10-13T12:17:40;25.80;99.90
10417;DHT22;62605;49.432;8.680;2023-10-13T12:20:11;25.80;99.90
10417;DHT22;62605;49.432;8.680;2023-10-13T12:22:44;26.20;99.90
10417;DHT22;62605;49.432;8.680;2023-10-13T12:25:21;26.30;99.90
10417;DHT22;62605;49.432;8.680;2023-10-13T12:27:52;26.30;99.90
10417;DHT22;62605;49.432;8.680;2023-10-13T12:30:22;26.20;99.90
10417;DHT22;62605;49.432;8.680;2023-10-13T12:33:01;26.10;99.90
10417;DHT22;62605;49.432;8.680;2023-10-13T12:35:34;26.40;99.90
10417;DHT22;62605;49.432;8.680;2023-10-13T12:38:10;26.30;99.90
10417;DHT22;62605;49.432;8.680;2023-10-13T12:41:05;26.30;99.90
10417;DHT22;62605;49.432;8.680;2023-10-13T12:43:50;26.20;99.90
10417;DHT22;62605;49.432;8.680;2023-10-13T12:46:35;26.30;99.90
10417;DHT22;62605;49.432;8.680;2023-10-13T12:49:19;26.60;99.90
10417;DHT22;62605;49.432;8.680;2023-10-13T12:52:04;27.00;99.90
10417;DHT22;62605;49.432;8.680;2023-10-13T12:54:41;26.80;99.90
10417;DHT22;62605;49.432;8.680;2023-10-13T12:57:12;26.60;99.90
10417;DHT22;62605;49.432;8.680;2023-10-13T12:59:41;26.40;99.90
10417;DHT22;62605;49.432;8.680;2023-10-13T13:02:08;26.20;99.90
10417;DHT22;62605;49.432;8.680;2023-10-13T13:04:45;26.00;99.90
10417;DHT22;62605;49.432;8.680;2023-10-13T13:07:30;25.90;99.90
10417;DHT22;62605;49.432;8.680;2023-10-13T13:10:09;25.80;99.90
10417;DHT22;62605;49.432;8.680;2023-10-13T13:12:37;25.80;99.90
10417;DHT22;62605;49.432;8.680;2023-10-13T13:15:07;25.80;99.90
10417;DHT22;62605;49.432;8.680;2023-10-13T13:17:35;25.80;99.90
10417;DHT22;62605;49.432;8.680;2023-10-13T13:20:05;25.70;99.90
10417;DHT22;62605;49.432;8.680;2023-10-13T13:22:37;25.70;99.90
10417;DHT22;62605;49.432;8.680;2023-10-13T13:25:05;25.80;99.90
10417;DHT22;62605;49.432;8.680;2023-10-13T13:27:35;25.80;99.90
10417;DHT22;62605;49.432;8.680;2023-10-13T13:30:02;26.00;99.90
10417;DHT22;62605;49.432;8.680;2023-10-13T13:32:39;26.20;99.90
10417;DHT22;62605;49.432;8.680;2023-10-13T13:35:07;26.20;99.90
10417;DHT22;62605;49.432;8.680;2023-10-13T13:37:39;26.00;99.90
10417;DHT22;62605;49.432;8.680;2023-10-13T13:40:09;25.80;99.90
10417;DHT22;62605;49.432;8.680;2023-10-13T13:42:47;25.80;99.90
10417;DHT22;62605;49.432;8.680;2023-10-13T13:45:14;25.70;99.90
10417;DHT22;62605;49.432;8.680;2023-10-13T13:47:56;25.70;99.90
10417;DHT22;62605;49.432;8.680;2023-10-13T13:50:25;25.80;99.90
10417;DHT22;62605;49.432;8.680;2023-10-13T13:52:55;25.80;99.90
10417;DHT22;62605;49.432;8.680;2023-10-13T13:55:23;26.00;99.90
10417;DHT22;62605;49.432;8.680;2023-10-13T13:57:56;26.20;99.90
10417;DHT22;62605;49.432;8.680;2023-10-13T14:00:24;26.30;99.90
10417;DHT22;62605;49.432;8.680;2023-10-13T14:03:04;26.30;99.90
10417;DHT22;62605;49.432;8.680;2023-10-13T14:05:41;26.10;99.90
10417;DHT22;62605;49.432;8.680;2023-10-13T14:08:10;25.90;99.90
10417;DHT22;62605;49.432;8.680;2023-10-13T14:10:42;25.70;99.90
10417;DHT22;62605;49.432;8.680;2023-10-13T14:13:23;25.70;99.90
10417;DHT22;62605;49.432;8.680;2023-10-13T14:16:11;25.70;99.90
10417;DHT22;62605;49.432;8.680;2023-10-13T14:18:44;25.90;99.90
10417;DHT22;62605;49.432;8.680;2023-10-13T14:21:11;26.00;99.90
10417;DHT22;62605;49.432;8.680;2023-10-13T14:23:43;26.00;99.90
10417;DHT22;62605;49.432;8.680;2023-10-13T14:26:13;26.00;99.90
10417;DHT22;62605;49.432;8.680;2023-10-13T14:28:43;26.00;99.90
10417;DHT22;62605;49.432;8.680;2023-10-13T14:31:26;25.90;99.90
10417;DHT22;62605;49.432;8.680;2023-10-13T14:33:55;25.90;99.90
10417;DHT22;62605;49.432;8.680;2023-10-13T14:36:22;26.00;99.90
10417;DHT22;62605;49.432;8.680;2023-10-13T14:38:50;25.90;99.90
10417;DHT22;62605;49.432;8.680;2023-10-13T14:41:17;26.00;99.90
10417;DHT22;62605;49.432;8.680;2023-10-13T14:43:45;26.00;99.90
10417;DHT22;62605;49.432;8.680;2023-10-13T14:46:15;25.90;99.90
10417;DHT22;62605;49.432;8.680;2023-10-13T14:48:42;25.90;99.90
10417;DHT22;62605;49.432;8.680;2023-10-13T14:51:11;25.90;99.90
10417;DHT22;62605;49.432;8.680;2023-10-13T14:53:40;25.80;99.90
10417;DHT22;62605;49.432;8.680;2023-10-13T14:56:10;25.80;99.90
10417;DHT22;62605;49.432;8.680;2023-10-13T14:58:38;26.00;99.90
10417;DHT22;62605;49.432;8.680;2023-10-13T15:01:11;26.10;99.90
10417;DHT22;62605;49.432;8.680;2023-10-13T15:03:41;26.30;99.90
10417;DHT22;62605;49.432;8.680;2023-10-13T15:06:16;26.40;99.90
10417;DHT22;62605;49.432;8.680;2023-10-13T15:08:44;26.50;99.90
10417;DHT22;62605;49.432;8.680;2023-10-13T15:11:13;26.50;99.90
10417;DHT22;62605;49.432;8.680;2023-10-13T15:13:40;26.50;99.90
10417;DHT22;62605;49.432;8.680;2023-10-13T15:16:14;26.50;99.90
10417;DHT22;62605;49.432;8.680;2023-10-13T15:18:43;26.50;99.90
10417;DHT22;62605;49.432;8.680;2023-10-13T15:21:11;26.60;99.90
10417;DHT22;62605;49.432;8.680;2023-10-13T15:23:40;26.70;99.90
10417;DHT22;62605;49.432;8.680;2023-10-13T15:26:09;26.60;99.90
10417;DHT22;62605;49.432;8.680;2023-10-13T15:28:39;26.60;99.90
10417;DHT22;62605;49.432;8.680;2023-10-13T15:31:14;26.60;99.90
10417;DHT22;62605;49.432;8.680;2023-10-13T15:33:54;26.70;99.90
10417;DHT22;62605;49.432;8.680;2023-10-13T15:36:22;26.70;99.90
10417;DHT22;62605;49.432;8.680;2023-10-13T15:38:51;26.70;99.90
10417;DHT22;62605;49.432;8.680;2023-10-13T15:41:22;26.70;99.90
10417;DHT22;62605;49.432;8.680;2023-10-13T15:43:49;26.50;99.90
10417;DHT22;62605;49.432;8.680;2023-10-13T15:46:18;26.50;99.90
10417;DHT22;62605;49.432;8.680;2023-10-13T15:48:46;26.40;99.90
10417;DHT22;62605;49.432;8.680;2023-10-13T15:51:14;26.30;99.90
10417;DHT22;62605;49.432;8.680;2023-10-13T15:53:42;26.10;99.90
10417;DHT22;62605;49.432;8.680;2023-10-13T15:56:15;26.10;99.90
10417;DHT22;62605;49.432;8.680;2023-10-13T15:58:42;25.90;99.90
10417;DHT22;62605;49.432;8.680;2023-10-13T16:01:11;26.00;99.90
10417;DHT22;62605;49.432;8.680;2023-10-13T16:03:39;25.90;99.90
10417;DHT22;62605;49.432;8.680;2023-10-13T16:06:09;25.70;99.90
10417;DHT22;62605;49.432;8.680;2023-10-13T16:08:37;25.50;99.90
10417;DHT22;62605;49.432;8.680;2023-10-13T16:11:05;25.50;99.90
10417;DHT22;62605;49.432;8.680;2023-10-13T16:13:36;25.40;99.90
10417;DHT22;62605;49.432;8.680;2023-10-13T16:16:03;25.10;99.90
10417;DHT22;62605;49.432;8.680;2023-10-13T16:18:31;25.10;99.90
10417;DHT22;62605;49.432;8.680;2023-10-13T16:21:00;25.00;99.90
10417;DHT22;62605;49.432;8.680;2023-10-13T16:23:29;24.80;99.90
10417;DHT22;62605;49.432;8.680;2023-10-13T16:25:56;24.60;99.90
10417;DHT22;62605;49.432;8.680;2023-10-13T16:28:27;24.50;99.90
10417;DHT22;62605;49.432;8.680;2023-10-13T16:30:55;24.50;99.90
10417;DHT22;62605;49.432;8.680;2023-10-13T16:33:22;24.40;99.90
10417;DHT22;62605;49.432;8.680;2023-10-13T16:35:49;24.30;99.90
10417;DHT22;62605;49.432;8.680;2023-10-13T16:38:19;24.10;99.90
10417;DHT22;62605;49.432;8.680;2023-10-13T16:40:51;23.80;99.90
10417;DHT22;62605;49.432;8.680;2023-10-13T16:43:19;23.60;99.90
10417;DHT22;62605;49.432;8.680;2023-10-13T16:45:46;23.40;99.90
10417;DHT22;62605;49.432;8.680;2023-10-13T16:48:15;23.50;99.90